sensor_id;sensor_type;location;lat;lon;timestamp;pressure;altitude;pressure_sealevel;temperature;humidity
78986;BME280;68384;55.750;48.746;2024-02-21T00:00:00;100687.25;;;-9.65;76.10
78986;BME280;68384;55.750;48.746;2024-02-21T00:01:05;100677.88;;;-9.64;75.30
78986;BME280;68384;55.750;48.746;2024-02-21T00:02:07;100682.91;;;-9.67;75.69
78986;BME280;68384;55.750;48.746;2024-02-21T00:03:09;100681.16;;;-9.68;75.15
78986;BME280;68384;55.750;48.746;2024-02-21T00:04:11;100690.66;;;-9.66;76.26
78986;BME280;68384;55.750;48.746;2024-02-21T00:05:14;100683.78;;;-9.67;75.63
78986;BME280;68384;55.750;48.746;2024-02-21T00:06:16;100677.84;;;-9.66;76.18
78986;BME280;68384;55.750;48.746;2024-02-21T00:07:18;100678.69;;;-9.65;76.16
78986;BME280;68384;55.750;48.746;2024-02-21T00:08:20;100678.69;;;-9.65;76.06
78986;BME280;68384;55.750;48.746;2024-02-21T00:09:23;100681.25;;;-9.65;76.19
78986;BME280;68384;55.750;48.746;2024-02-21T00:10:25;100681.25;;;-9.65;76.27
78986;BME280;68384;55.750;48.746;2024-02-21T00:11:28;100683.81;;;-9.65;75.59
78986;BME280;68384;55.750;48.746;2024-02-21T00:12:30;100686.38;;;-9.65;75.87
78986;BME280;68384;55.750;48.746;2024-02-21T00:13:32;100692.38;;;-9.65;76.01
78986;BME280;68384;55.750;48.746;2024-02-21T00:14:34;100679.53;;;-9.66;75.84
78986;BME280;68384;55.750;48.746;2024-02-21T00:15:37;100681.22;;;-9.67;75.72
78986;BME280;68384;55.750;48.746;2024-02-21T00:16:39;100677.78;;;-9.67;75.55
78986;BME280;68384;55.750;48.746;2024-02-21T00:17:41;100686.38;;;-9.65;76.61
78986;BME280;68384;55.750;48.746;2024-02-21T00:18:43;100688.13;;;-9.64;76.24
78986;BME280;68384;55.750;48.746;2024-02-21T00:19:46;100682.13;;;-9.65;76.17
78986;BME280;68384;55.750;48.746;2024-02-21T00:20:48;100685.63;;;-9.63;76.23
78986;BME280;68384;55.750;48.746;2024-02-21T00:21:50;100689.97;;;-9.60;76.37
78986;BME280;68384;55.750;48.746;2024-02-21T00:22:53;100679.72;;;-9.60;76.39
78986;BME280;68384;55.750;48.746;2024-02-21T00:23:56;100692.59;;;-9.59;76.58
78986;BME280;68384;55.750;48.746;2024-02-21T00:24:59;100691.72;;;-9.59;75.71
78986;BME280;68384;55.750;48.746;2024-02-21T00:26:02;100677.22;;;-9.59;76.61
78986;BME280;68384;55.750;48.746;2024-02-21T00:27:04;100682.34;;;-9.59;75.41
78986;BME280;68384;55.750;48.746;2024-02-21T00:28:06;100681.56;;;-9.56;75.79
78986;BME280;68384;55.750;48.746;2024-02-21T00:29:08;100684.09;;;-9.58;76.48
78986;BME280;68384;55.750;48.746;2024-02-21T00:30:11;100681.56;;;-9.56;75.73
78986;BME280;68384;55.750;48.746;2024-02-21T00:31:13;100684.97;;;-9.57;75.94
78986;BME280;68384;55.750;48.746;2024-02-21T00:32:15;100686.69;;;-9.56;76.26
78986;BME280;68384;55.750;48.746;2024-02-21T00:33:18;100679.84;;;-9.57;75.67
78986;BME280;68384;55.750;48.746;2024-02-21T00:34:21;100678.13;;;-9.57;75.81
78986;BME280;68384;55.750;48.746;2024-02-21T00:35:24;100684.13;;;-9.56;75.33
78986;BME280;68384;55.750;48.746;2024-02-21T00:36:29;100679.06;;;-9.55;76.50
78986;BME280;68384;55.750;48.746;2024-02-21T00:37:31;100678.25;;;-9.54;76.61
78986;BME280;68384;55.750;48.746;2024-02-21T00:38:34;100673.94;;;-9.55;75.94
78986;BME280;68384;55.750;48.746;2024-02-21T00:39:36;100678.19;;;-9.55;75.80
78986;BME280;68384;55.750;48.746;2024-02-21T00:40:38;100677.38;;;-9.54;76.58
78986;BME280;68384;55.750;48.746;2024-02-21T00:41:41;100675.56;;;-9.57;76.58
78986;BME280;68384;55.750;48.746;2024-02-21T00:42:43;100672.19;;;-9.56;75.75
78986;BME280;68384;55.750;48.746;2024-02-21T00:43:45;100675.56;;;-9.57;75.82
78986;BME280;68384;55.750;48.746;2024-02-21T00:44:47;100674.75;;;-9.56;75.55
78986;BME280;68384;55.750;48.746;2024-02-21T00:45:50;100674.72;;;-9.57;75.94
78986;BME280;68384;55.750;48.746;2024-02-21T00:46:52;100671.28;;;-9.58;76.57
78986;BME280;68384;55.750;48.746;2024-02-21T00:47:55;100674.66;;;-9.59;76.82
78986;BME280;68384;55.750;48.746;2024-02-21T00:48:58;100671.31;;;-9.56;76.81
78986;BME280;68384;55.750;48.746;2024-02-21T00:50:00;100672.13;;;-9.57;75.84
78986;BME280;68384;55.750;48.746;2024-02-21T00:51:02;100674.72;;;-9.57;75.58
78986;BME280;68384;55.750;48.746;2024-02-21T00:52:05;100669.53;;;-9.59;76.32
78986;BME280;68384;55.750;48.746;2024-02-21T00:53:07;100673.78;;;-9.59;76.18
78986;BME280;68384;55.750;48.746;2024-02-21T00:54:09;100667.84;;;-9.58;75.62
78986;BME280;68384;55.750;48.746;2024-02-21T00:55:11;100670.44;;;-9.57;76.36
78986;BME280;68384;55.750;48.746;2024-02-21T00:56:13;100669.56;;;-9.57;76.45
78986;BME280;68384;55.750;48.746;2024-02-21T00:57:16;100674.75;;;-9.56;76.10
78986;BME280;68384;55.750;48.746;2024-02-21T00:58:18;100665.31;;;-9.57;75.92
78986;BME280;68384;55.750;48.746;2024-02-21T00:59:20;100669.47;;;-9.60;76.39
78986;BME280;68384;55.750;48.746;2024-02-21T01:00:22;100660.97;;;-9.59;75.79
78986;BME280;68384;55.750;48.746;2024-02-21T01:01:25;100659.22;;;-9.60;76.01
78986;BME280;68384;55.750;48.746;2024-02-21T01:02:27;100665.13;;;-9.63;75.33
78986;BME280;68384;55.750;48.746;2024-02-21T01:03:30;100661.63;;;-9.65;76.03
78986;BME280;68384;55.750;48.746;2024-02-21T01:04:32;100665.00;;;-9.66;76.42
78986;BME280;68384;55.750;48.746;2024-02-21T01:05:34;100666.66;;;-9.68;76.03
78986;BME280;68384;55.750;48.746;2024-02-21T01:06:36;100664.91;;;-9.69;75.89
78986;BME280;68384;55.750;48.746;2024-02-21T01:07:39;100659.78;;;-9.69;75.98
78986;BME280;68384;55.750;48.746;2024-02-21T01:08:41;100662.28;;;-9.72;76.03
78986;BME280;68384;55.750;48.746;2024-02-21T01:09:43;100659.72;;;-9.70;75.42
78986;BME280;68384;55.750;48.746;2024-02-21T01:10:45;100670.91;;;-9.68;75.81
78986;BME280;68384;55.750;48.746;2024-02-21T01:11:47;100663.97;;;-9.72;75.78
78986;BME280;68384;55.750;48.746;2024-02-21T01:12:49;100662.22;;;-9.73;75.81
78986;BME280;68384;55.750;48.746;2024-02-21T01:13:52;100660.47;;;-9.75;76.55
78986;BME280;68384;55.750;48.746;2024-02-21T01:14:54;100657.97;;;-9.73;76.47
78986;BME280;68384;55.750;48.746;2024-02-21T01:15:57;100663.97;;;-9.72;76.98
78986;BME280;68384;55.750;48.746;2024-02-21T01:16:59;100660.47;;;-9.75;75.82
78986;BME280;68384;55.750;48.746;2024-02-21T01:18:01;100661.34;;;-9.74;76.88
78986;BME280;68384;55.750;48.746;2024-02-21T01:19:04;100658.78;;;-9.74;76.37
78986;BME280;68384;55.750;48.746;2024-02-21T01:20:07;100656.19;;;-9.76;76.69
78986;BME280;68384;55.750;48.746;2024-02-21T01:21:09;100661.34;;;-9.74;75.96
78986;BME280;68384;55.750;48.746;2024-02-21T01:22:12;100658.75;;;-9.76;76.00
78986;BME280;68384;55.750;48.746;2024-02-21T01:23:14;100665.59;;;-9.75;76.24
78986;BME280;68384;55.750;48.746;2024-02-21T01:24:16;100657.09;;;-9.73;76.07
78986;BME280;68384;55.750;48.746;2024-02-21T01:25:18;100657.88;;;-9.76;75.80
78986;BME280;68384;55.750;48.746;2024-02-21T01:26:21;100657.00;;;-9.77;75.92
78986;BME280;68384;55.750;48.746;2024-02-21T01:27:23;100654.44;;;-9.77;76.56
78986;BME280;68384;55.750;48.746;2024-02-21T01:28:25;100653.63;;;-9.76;76.38
78986;BME280;68384;55.750;48.746;2024-02-21T01:29:27;100652.78;;;-9.75;76.31
78986;BME280;68384;55.750;48.746;2024-02-21T01:30:29;100659.63;;;-9.75;76.17
78986;BME280;68384;55.750;48.746;2024-02-21T01:31:31;100652.78;;;-9.75;75.91
78986;BME280;68384;55.750;48.746;2024-02-21T01:32:34;100658.84;;;-9.72;76.09
78986;BME280;68384;55.750;48.746;2024-02-21T01:33:36;100648.53;;;-9.74;76.27
78986;BME280;68384;55.750;48.746;2024-02-21T01:34:38;100654.44;;;-9.77;76.89
78986;BME280;68384;55.750;48.746;2024-02-21T01:35:40;100652.75;;;-9.76;76.43
78986;BME280;68384;55.750;48.746;2024-02-21T01:36:43;100654.44;;;-9.77;76.71
78986;BME280;68384;55.750;48.746;2024-02-21T01:37:45;100658.75;;;-9.76;76.86
78986;BME280;68384;55.750;48.746;2024-02-21T01:38:47;100652.75;;;-9.76;75.99
78986;BME280;68384;55.750;48.746;2024-02-21T01:39:49;100655.19;;;-9.79;76.13
78986;BME280;68384;55.750;48.746;2024-02-21T01:40:52;100655.19;;;-9.79;76.40
78986;BME280;68384;55.750;48.746;2024-02-21T01:41:54;100660.28;;;-9.81;75.71
78986;BME280;68384;55.750;48.746;2024-02-21T01:42:56;100650.84;;;-9.82;76.25
78986;BME280;68384;55.750;48.746;2024-02-21T01:43:59;100659.41;;;-9.81;77.17
78986;BME280;68384;55.750;48.746;2024-02-21T01:45:01;100653.41;;;-9.82;76.65
78986;BME280;68384;55.750;48.746;2024-02-21T01:46:03;100655.00;;;-9.85;76.85
78986;BME280;68384;55.750;48.746;2024-02-21T01:47:05;100658.44;;;-9.85;75.89
78986;BME280;68384;55.750;48.746;2024-02-21T01:48:08;100656.69;;;-9.86;77.03
78986;BME280;68384;55.750;48.746;2024-02-21T01:49:10;100655.88;;;-9.85;77.31
78986;BME280;68384;55.750;48.746;2024-02-21T01:50:14;100652.38;;;-9.87;76.09
78986;BME280;68384;55.750;48.746;2024-02-21T01:51:17;100660.06;;;-9.87;76.27
78986;BME280;68384;55.750;48.746;2024-02-21T01:52:19;100662.63;;;-9.87;76.00
78986;BME280;68384;55.750;48.746;2024-02-21T01:53:30;100654.94;;;-9.87;77.19
78986;BME280;68384;55.750;48.746;2024-02-21T01:54:34;100656.53;;;-9.90;75.88
78986;BME280;68384;55.750;48.746;2024-02-21T01:55:37;100654.84;;;-9.90;76.30
78986;BME280;68384;55.750;48.746;2024-02-21T01:56:42;100650.59;;;-9.89;76.74
78986;BME280;68384;55.750;48.746;2024-02-21T01:57:45;100654.84;;;-9.90;76.53
78986;BME280;68384;55.750;48.746;2024-02-21T01:58:48;100654.75;;;-9.93;76.18
78986;BME280;68384;55.750;48.746;2024-02-21T01:59:52;100660.75;;;-9.92;77.00
78986;BME280;68384;55.750;48.746;2024-02-21T02:00:56;100655.59;;;-9.94;76.39
78986;BME280;68384;55.750;48.746;2024-02-21T02:02:00;100648.75;;;-9.93;77.00
78986;BME280;68384;55.750;48.746;2024-02-21T02:03:02;100650.47;;;-9.94;76.29
78986;BME280;68384;55.750;48.746;2024-02-21T02:04:06;100652.19;;;-9.93;77.58
78986;BME280;68384;55.750;48.746;2024-02-21T02:05:08;100651.38;;;-9.92;76.36
78986;BME280;68384;55.750;48.746;2024-02-21T02:06:11;100647.13;;;-9.91;77.45
78986;BME280;68384;55.750;48.746;2024-02-21T02:07:13;100646.19;;;-9.93;75.97
78986;BME280;68384;55.750;48.746;2024-02-21T02:08:18;100644.50;;;-9.93;76.27
78986;BME280;68384;55.750;48.746;2024-02-21T02:09:20;100647.06;;;-9.93;76.33
78986;BME280;68384;55.750;48.746;2024-02-21T02:10:23;100648.75;;;-9.93;76.55
78986;BME280;68384;55.750;48.746;2024-02-21T02:11:25;100650.50;;;-9.92;76.38
78986;BME280;68384;55.750;48.746;2024-02-21T02:12:27;100652.25;;;-9.91;76.21
78986;BME280;68384;55.750;48.746;2024-02-21T02:13:29;100645.44;;;-9.91;77.42
78986;BME280;68384;55.750;48.746;2024-02-21T02:14:31;100651.41;;;-9.90;77.08
78986;BME280;68384;55.750;48.746;2024-02-21T02:15:46;100649.72;;;-9.90;75.99
78986;BME280;68384;55.750;48.746;2024-02-21T02:16:49;100646.25;;;-9.92;77.38
78986;BME280;68384;55.750;48.746;2024-02-21T02:17:51;100647.13;;;-9.91;76.53
78986;BME280;68384;55.750;48.746;2024-02-21T02:18:54;100643.69;;;-9.92;76.85
78986;BME280;68384;55.750;48.746;2024-02-21T02:19:56;100640.34;;;-9.89;77.05
78986;BME280;68384;55.750;48.746;2024-02-21T02:20:59;100647.13;;;-9.91;75.90
78986;BME280;68384;55.750;48.746;2024-02-21T02:22:15;100638.53;;;-9.93;76.95
78986;BME280;68384;55.750;48.746;2024-02-21T02:23:29;100638.59;;;-9.90;76.34
78986;BME280;68384;55.750;48.746;2024-02-21T02:24:31;100642.88;;;-9.91;76.52
78986;BME280;68384;55.750;48.746;2024-02-21T02:25:35;100642.88;;;-9.91;76.92
78986;BME280;68384;55.750;48.746;2024-02-21T02:26:37;100646.25;;;-9.92;75.78
78986;BME280;68384;55.750;48.746;2024-02-21T02:27:42;100645.34;;;-9.94;75.87
78986;BME280;68384;55.750;48.746;2024-02-21T02:28:46;100641.03;;;-9.95;76.58
78986;BME280;68384;55.750;48.746;2024-02-21T02:29:48;100639.28;;;-9.96;77.29
78986;BME280;68384;55.750;48.746;2024-02-21T02:30:50;100638.41;;;-9.96;76.31
78986;BME280;68384;55.750;48.746;2024-02-21T02:31:52;100643.44;;;-9.99;76.90
78986;BME280;68384;55.750;48.746;2024-02-21T02:32:55;100636.50;;;-10.02;75.82
78986;BME280;68384;55.750;48.746;2024-02-21T02:33:57;100640.72;;;-10.04;75.64
78986;BME280;68384;55.750;48.746;2024-02-21T02:34:59;100645.78;;;-10.05;76.98
78986;BME280;68384;55.750;48.746;2024-02-21T02:36:03;100638.97;;;-10.05;77.36
78986;BME280;68384;55.750;48.746;2024-02-21T02:37:05;100644.09;;;-10.05;76.21
78986;BME280;68384;55.750;48.746;2024-02-21T02:38:07;100640.59;;;-10.07;76.75
78986;BME280;68384;55.750;48.746;2024-02-21T02:39:10;100641.47;;;-10.06;77.04
78986;BME280;68384;55.750;48.746;2024-02-21T02:40:12;100636.28;;;-10.08;77.36
78986;BME280;68384;55.750;48.746;2024-02-21T02:41:14;100640.56;;;-10.09;77.45
78986;BME280;68384;55.750;48.746;2024-02-21T02:42:17;100640.59;;;-10.07;76.06
78986;BME280;68384;55.750;48.746;2024-02-21T02:43:19;100640.56;;;-10.09;76.26
78986;BME280;68384;55.750;48.746;2024-02-21T02:44:21;100643.97;;;-10.08;76.79
78986;BME280;68384;55.750;48.746;2024-02-21T02:45:23;100637.97;;;-10.10;76.26
78986;BME280;68384;55.750;48.746;2024-02-21T02:46:28;100639.66;;;-10.11;76.05
78986;BME280;68384;55.750;48.746;2024-02-21T02:47:30;100639.72;;;-10.09;76.39
78986;BME280;68384;55.750;48.746;2024-02-21T02:48:32;100637.16;;;-10.09;76.66
78986;BME280;68384;55.750;48.746;2024-02-21T02:49:35;100643.09;;;-10.09;77.63
78986;BME280;68384;55.750;48.746;2024-02-21T02:50:37;100643.16;;;-10.07;77.01
78986;BME280;68384;55.750;48.746;2024-02-21T02:51:42;100638.88;;;-10.08;76.68
78986;BME280;68384;55.750;48.746;2024-02-21T02:52:48;100634.59;;;-10.07;76.89
78986;BME280;68384;55.750;48.746;2024-02-21T02:53:50;100638.03;;;-10.07;76.69
78986;BME280;68384;55.750;48.746;2024-02-21T02:54:52;100637.16;;;-10.09;76.82
78986;BME280;68384;55.750;48.746;2024-02-21T02:55:57;100639.72;;;-10.07;77.55
78986;BME280;68384;55.750;48.746;2024-02-21T02:56:59;100638.03;;;-10.07;76.88
78986;BME280;68384;55.750;48.746;2024-02-21T02:58:01;100641.41;;;-10.10;75.77
78986;BME280;68384;55.750;48.746;2024-02-21T02:59:04;100637.16;;;-10.09;76.09
78986;BME280;68384;55.750;48.746;2024-02-21T03:00:07;100630.34;;;-10.07;77.06
78986;BME280;68384;55.750;48.746;2024-02-21T03:01:09;100638.88;;;-10.08;76.45
78986;BME280;68384;55.750;48.746;2024-02-21T03:02:11;100632.91;;;-10.07;76.43
78986;BME280;68384;55.750;48.746;2024-02-21T03:03:13;100633.84;;;-10.05;76.76
78986;BME280;68384;55.750;48.746;2024-02-21T03:04:15;100637.31;;;-10.03;76.84
78986;BME280;68384;55.750;48.746;2024-02-21T03:05:21;100628.81;;;-10.02;76.15
78986;BME280;68384;55.750;48.746;2024-02-21T03:06:24;100636.47;;;-10.03;75.84
78986;BME280;68384;55.750;48.746;2024-02-21T03:07:26;100644.19;;;-10.02;77.22
78986;BME280;68384;55.750;48.746;2024-02-21T03:08:29;100633.91;;;-10.03;76.25
78986;BME280;68384;55.750;48.746;2024-02-21T03:09:31;100633.03;;;-10.04;76.67
78986;BME280;68384;55.750;48.746;2024-02-21T03:10:33;100642.41;;;-10.04;77.17
78986;BME280;68384;55.750;48.746;2024-02-21T03:11:36;100645.84;;;-10.04;76.45
78986;BME280;68384;55.750;48.746;2024-02-21T03:12:39;100640.66;;;-10.05;76.90
78986;BME280;68384;55.750;48.746;2024-02-21T03:13:42;100645.72;;;-10.07;76.14
78986;BME280;68384;55.750;48.746;2024-02-21T03:14:44;100649.09;;;-10.08;76.72
78986;BME280;68384;55.750;48.746;2024-02-21T03:15:46;100642.28;;;-10.09;75.60
78986;BME280;68384;55.750;48.746;2024-02-21T03:16:51;100643.09;;;-10.10;76.25
78986;BME280;68384;55.750;48.746;2024-02-21T03:17:53;100640.53;;;-10.10;76.68
78986;BME280;68384;55.750;48.746;2024-02-21T03:18:55;100640.53;;;-10.10;77.03
78986;BME280;68384;55.750;48.746;2024-02-21T03:19:58;100651.59;;;-10.11;77.01
78986;BME280;68384;55.750;48.746;2024-02-21T03:21:02;100644.78;;;-10.11;76.25
78986;BME280;68384;55.750;48.746;2024-02-21T03:22:04;100649.09;;;-10.08;77.41
78986;BME280;68384;55.750;48.746;2024-02-21T03:23:07;100655.91;;;-10.09;75.99
78986;BME280;68384;55.750;48.746;2024-02-21T03:24:10;100659.41;;;-10.06;76.87
78986;BME280;68384;55.750;48.746;2024-02-21T03:25:12;100649.16;;;-10.06;76.26
78986;BME280;68384;55.750;48.746;2024-02-21T03:26:16;100646.66;;;-10.05;76.37
78986;BME280;68384;55.750;48.746;2024-02-21T03:27:19;100644.09;;;-10.05;77.06
78986;BME280;68384;55.750;48.746;2024-02-21T03:28:21;100656.06;;;-10.04;76.35
78986;BME280;68384;55.750;48.746;2024-02-21T03:29:23;100645.06;;;-10.01;76.53
78986;BME280;68384;55.750;48.746;2024-02-21T03:30:25;100654.44;;;-10.02;75.87
78986;BME280;68384;55.750;48.746;2024-02-21T03:31:27;100643.31;;;-10.02;76.58
78986;BME280;68384;55.750;48.746;2024-02-21T03:32:34;100650.19;;;-10.01;76.35
78986;BME280;68384;55.750;48.746;2024-02-21T03:33:36;100656.25;;;-9.99;77.17
78986;BME280;68384;55.750;48.746;2024-02-21T03:34:38;100652.03;;;-9.97;76.34
78986;BME280;68384;55.750;48.746;2024-02-21T03:35:40;100647.72;;;-9.98;75.96
78986;BME280;68384;55.750;48.746;2024-02-21T03:36:42;100646.16;;;-9.95;76.99
78986;BME280;68384;55.750;48.746;2024-02-21T03:37:45;100650.41;;;-9.95;76.03
78986;BME280;68384;55.750;48.746;2024-02-21T03:38:48;100645.28;;;-9.95;76.66
78986;BME280;68384;55.750;48.746;2024-02-21T03:39:50;100653.03;;;-9.94;75.93
78986;BME280;68384;55.750;48.746;2024-02-21T03:40:53;100647.03;;;-9.94;77.13
78986;BME280;68384;55.750;48.746;2024-02-21T03:41:55;100644.50;;;-9.93;75.73
78986;BME280;68384;55.750;48.746;2024-02-21T03:42:57;100646.25;;;-9.92;76.62
78986;BME280;68384;55.750;48.746;2024-02-21T03:43:59;100651.41;;;-9.90;76.26
78986;BME280;68384;55.750;48.746;2024-02-21T03:45:01;100641.03;;;-9.95;76.33
78986;BME280;68384;55.750;48.746;2024-02-21T03:46:03;100647.06;;;-9.93;75.69
78986;BME280;68384;55.750;48.746;2024-02-21T03:47:06;100647.91;;;-9.94;75.37
78986;BME280;68384;55.750;48.746;2024-02-21T03:48:08;100647.91;;;-9.94;76.80
78986;BME280;68384;55.750;48.746;2024-02-21T03:49:10;100648.81;;;-9.92;76.13
78986;BME280;68384;55.750;48.746;2024-02-21T03:50:13;100653.88;;;-9.93;75.82
78986;BME280;68384;55.750;48.746;2024-02-21T03:51:16;100648.81;;;-9.92;75.89
78986;BME280;68384;55.750;48.746;2024-02-21T03:52:18;100647.13;;;-9.91;76.26
78986;BME280;68384;55.750;48.746;2024-02-21T03:53:20;100643.66;;;-9.93;75.71
78986;BME280;68384;55.750;48.746;2024-02-21T03:54:23;100651.41;;;-9.90;76.21
78986;BME280;68384;55.750;48.746;2024-02-21T03:55:25;100649.72;;;-9.90;76.00
78986;BME280;68384;55.750;48.746;2024-02-21T03:56:27;100652.28;;;-9.90;75.97
78986;BME280;68384;55.750;48.746;2024-02-21T03:57:29;100645.44;;;-9.91;76.63
78986;BME280;68384;55.750;48.746;2024-02-21T03:58:31;100649.72;;;-9.90;76.76
78986;BME280;68384;55.750;48.746;2024-02-21T03:59:33;100656.56;;;-9.89;76.59
78986;BME280;68384;55.750;48.746;2024-02-21T04:00:36;100652.31;;;-9.88;75.74
78986;BME280;68384;55.750;48.746;2024-02-21T04:01:38;100653.19;;;-9.88;75.64
78986;BME280;68384;55.750;48.746;2024-02-21T04:02:40;100653.19;;;-9.88;76.62
78986;BME280;68384;55.750;48.746;2024-02-21T04:03:45;100654.94;;;-9.87;75.42
78986;BME280;68384;55.750;48.746;2024-02-21T04:04:47;100660.16;;;-9.84;76.12
78986;BME280;68384;55.750;48.746;2024-02-21T04:05:50;100655.81;;;-9.86;75.50
78986;BME280;68384;55.750;48.746;2024-02-21T04:06:52;100656.69;;;-9.86;76.36
78986;BME280;68384;55.750;48.746;2024-02-21T04:07:55;100655.81;;;-9.86;75.58
78986;BME280;68384;55.750;48.746;2024-02-21T04:08:57;100658.44;;;-9.85;75.16
78986;BME280;68384;55.750;48.746;2024-02-21T04:09:59;100657.59;;;-9.84;76.04
78986;BME280;68384;55.750;48.746;2024-02-21T04:11:01;100655.97;;;-9.82;75.36
78986;BME280;68384;55.750;48.746;2024-02-21T04:12:04;100659.34;;;-9.83;74.95
78986;BME280;68384;55.750;48.746;2024-02-21T04:13:07;100662.84;;;-9.81;75.92
78986;BME280;68384;55.750;48.746;2024-02-21T04:14:09;100661.19;;;-9.79;75.10
78986;BME280;68384;55.750;48.746;2024-02-21T04:15:13;100661.25;;;-9.77;74.84
78986;BME280;68384;55.750;48.746;2024-02-21T04:16:17;100662.22;;;-9.73;74.73
78986;BME280;68384;55.750;48.746;2024-02-21T04:17:19;100662.28;;;-9.72;74.54
78986;BME280;68384;55.750;48.746;2024-02-21T04:18:21;100659.78;;;-9.69;74.80
78986;BME280;68384;55.750;48.746;2024-02-21T04:19:23;100666.72;;;-9.66;74.89
78986;BME280;68384;55.750;48.746;2024-02-21T04:20:26;100659.06;;;-9.65;74.63
78986;BME280;68384;55.750;48.746;2024-02-21T04:21:28;100660.88;;;-9.62;74.58
78986;BME280;68384;55.750;48.746;2024-02-21T04:22:31;100650.66;;;-9.61;74.79
78986;BME280;68384;55.750;48.746;2024-02-21T04:23:36;100655.88;;;-9.58;74.40
78986;BME280;68384;55.750;48.746;2024-02-21T04:24:38;100664.56;;;-9.54;74.46
78986;BME280;68384;55.750;48.746;2024-02-21T04:25:40;100653.44;;;-9.53;74.15
78986;BME280;68384;55.750;48.746;2024-02-21T04:26:43;100654.31;;;-9.53;74.46
78986;BME280;68384;55.750;48.746;2024-02-21T04:27:45;100650.13;;;-9.51;74.44
78986;BME280;68384;55.750;48.746;2024-02-21T04:28:48;100651.84;;;-9.50;74.70
78986;BME280;68384;55.750;48.746;2024-02-21T04:29:50;100642.47;;;-9.49;74.25
78986;BME280;68384;55.750;48.746;2024-02-21T04:30:52;100651.97;;;-9.47;74.71
78986;BME280;68384;55.750;48.746;2024-02-21T04:31:54;100652.94;;;-9.43;74.41
78986;BME280;68384;55.750;48.746;2024-02-21T04:32:57;100649.53;;;-9.42;74.22
78986;BME280;68384;55.750;48.746;2024-02-21T04:33:59;100656.47;;;-9.40;73.80
78986;BME280;68384;55.750;48.746;2024-02-21T04:35:01;100650.50;;;-9.38;73.39
78986;BME280;68384;55.750;48.746;2024-02-21T04:36:04;100643.75;;;-9.36;73.67
78986;BME280;68384;55.750;48.746;2024-02-21T04:37:07;100648.91;;;-9.35;73.32
78986;BME280;68384;55.750;48.746;2024-02-21T04:38:09;100650.69;;;-9.32;73.32
78986;BME280;68384;55.750;48.746;2024-02-21T04:39:11;100648.22;;;-9.28;74.19
78986;BME280;68384;55.750;48.746;2024-02-21T04:40:13;100650.78;;;-9.28;73.20
78986;BME280;68384;55.750;48.746;2024-02-21T04:41:16;100658.63;;;-9.23;73.42
78986;BME280;68384;55.750;48.746;2024-02-21T04:42:19;100654.38;;;-9.23;72.81
78986;BME280;68384;55.750;48.746;2024-02-21T04:43:21;100654.47;;;-9.20;72.32
78986;BME280;68384;55.750;48.746;2024-02-21T04:44:23;100657.13;;;-9.17;72.65
78986;BME280;68384;55.750;48.746;2024-02-21T04:45:25;100658.84;;;-9.16;72.52
78986;BME280;68384;55.750;48.746;2024-02-21T04:46:27;100658.03;;;-9.15;72.17
78986;BME280;68384;55.750;48.746;2024-02-21T04:47:30;100653.81;;;-9.13;72.29
78986;BME280;68384;55.750;48.746;2024-02-21T04:48:32;100650.41;;;-9.12;72.17
78986;BME280;68384;55.750;48.746;2024-02-21T04:49:35;100659.13;;;-9.07;72.64
78986;BME280;68384;55.750;48.746;2024-02-21T04:50:37;100646.31;;;-9.07;71.80
78986;BME280;68384;55.750;48.746;2024-02-21T04:51:40;100646.41;;;-9.04;72.17
78986;BME280;68384;55.750;48.746;2024-02-21T04:52:43;100653.31;;;-9.01;71.91
78986;BME280;68384;55.750;48.746;2024-02-21T04:53:45;100651.63;;;-9.00;71.46
78986;BME280;68384;55.750;48.746;2024-02-21T04:54:48;100650.72;;;-9.02;70.87
78986;BME280;68384;55.750;48.746;2024-02-21T04:55:50;100650.81;;;-8.99;71.00
78986;BME280;68384;55.750;48.746;2024-02-21T04:56:52;100651.69;;;-8.99;71.67
78986;BME280;68384;55.750;48.746;2024-02-21T04:57:55;100653.31;;;-9.01;70.54
78986;BME280;68384;55.750;48.746;2024-02-21T04:58:57;100652.50;;;-9.00;71.16
78986;BME280;68384;55.750;48.746;2024-02-21T05:00:00;100648.28;;;-8.98;71.19
78986;BME280;68384;55.750;48.746;2024-02-21T05:01:02;100654.34;;;-8.94;70.93
78986;BME280;68384;55.750;48.746;2024-02-21T05:02:04;100646.56;;;-8.97;71.17
78986;BME280;68384;55.750;48.746;2024-02-21T05:03:07;100647.47;;;-8.95;71.39
78986;BME280;68384;55.750;48.746;2024-02-21T05:04:09;100644.00;;;-8.97;71.35
78986;BME280;68384;55.750;48.746;2024-02-21T05:05:11;100647.47;;;-8.95;70.74
78986;BME280;68384;55.750;48.746;2024-02-21T05:06:14;100652.59;;;-8.95;70.83
78986;BME280;68384;55.750;48.746;2024-02-21T05:07:16;100652.59;;;-8.95;71.93
78986;BME280;68384;55.750;48.746;2024-02-21T05:08:18;100654.34;;;-8.94;71.35
78986;BME280;68384;55.750;48.746;2024-02-21T05:09:21;100655.22;;;-8.94;70.75
78986;BME280;68384;55.750;48.746;2024-02-21T05:10:23;100649.25;;;-8.93;71.71
78986;BME280;68384;55.750;48.746;2024-02-21T05:11:25;100652.69;;;-8.92;71.13
78986;BME280;68384;55.750;48.746;2024-02-21T05:12:27;100654.50;;;-8.90;70.66
78986;BME280;68384;55.750;48.746;2024-02-21T05:13:31;100647.75;;;-8.86;71.05
78986;BME280;68384;55.750;48.746;2024-02-21T05:14:33;100644.41;;;-8.84;70.55
78986;BME280;68384;55.750;48.746;2024-02-21T05:15:36;100644.38;;;-8.85;70.25
78986;BME280;68384;55.750;48.746;2024-02-21T05:16:38;100647.13;;;-8.79;70.30
78986;BME280;68384;55.750;48.746;2024-02-21T05:17:41;100645.47;;;-8.76;70.81
78986;BME280;68384;55.750;48.746;2024-02-21T05:18:45;100644.78;;;-8.70;70.81
78986;BME280;68384;55.750;48.746;2024-02-21T05:19:47;100649.19;;;-8.66;70.83
78986;BME280;68384;55.750;48.746;2024-02-21T05:20:49;100644.97;;;-8.64;70.57
78986;BME280;68384;55.750;48.746;2024-02-21T05:21:52;100656.22;;;-8.59;69.83